createdAt,value
2023-05-06T00:01:49.563Z,18.26
2023-05-06T00:04:16.590Z,18.25
2023-05-06T00:06:44.032Z,18.24
2023-05-06T00:09:11.138Z,18.22
2023-05-06T00:11:38.141Z,18.21
2023-05-06T00:14:05.129Z,18.21
2023-05-06T00:16:32.251Z,18.19
2023-05-06T00:18:59.207Z,18.18
2023-05-06T00:21:27.257Z,18.16
2023-05-06T00:23:54.235Z,18.14
2023-05-06T00:26:21.205Z,18.13
2023-05-06T00:28:48.163Z,18.12
2023-05-06T00:31:15.235Z,18.11
2023-05-06T00:33:42.232Z,18.11
2023-05-06T00:36:09.484Z,18.13
2023-05-06T00:38:36.500Z,18.14
2023-05-06T00:41:03.578Z,18.15
2023-05-06T00:43:30.531Z,18.16
2023-05-06T00:45:57.546Z,18.16
2023-05-06T00:48:24.570Z,18.14
2023-05-06T00:50:51.605Z,18.11
2023-05-06T00:53:19.931Z,18.11
2023-05-06T00:55:46.893Z,18.10
2023-05-06T00:58:14.078Z,18.06
2023-05-06T01:00:42.522Z,18.03
2023-05-06T01:03:09.704Z,17.99
2023-05-06T01:05:44.158Z,17.98
2023-05-06T01:08:19.814Z,17.96
2023-05-06T01:10:52.409Z,18.03
2023-05-06T01:13:39.259Z,18.03
2023-05-06T01:16:06.377Z,18.02
2023-05-06T01:18:33.463Z,18.00
2023-05-06T01:21:00.495Z,17.98
2023-05-06T01:23:27.563Z,17.95
2023-05-06T01:25:54.535Z,17.86
2023-05-06T01:28:22.015Z,17.80
2023-05-06T01:30:58.256Z,17.86
2023-05-06T01:33:53.212Z,17.84
2023-05-06T01:36:38.609Z,17.83
2023-05-06T01:39:27.232Z,17.81
2023-05-06T01:41:54.952Z,17.79
2023-05-06T01:44:22.293Z,17.76
2023-05-06T01:46:50.034Z,17.73
2023-05-06T01:49:18.128Z,17.71
2023-05-06T01:51:48.672Z,17.67
2023-05-06T01:54:15.688Z,17.62
2023-05-06T01:56:42.694Z,17.59
2023-05-06T01:59:09.911Z,17.58
2023-05-06T02:01:36.902Z,17.56
2023-05-06T02:04:04.345Z,17.52
2023-05-06T02:06:31.865Z,17.50
2023-05-06T02:08:59.166Z,17.47
2023-05-06T02:11:26.808Z,17.46
2023-05-06T02:13:59.321Z,17.46
2023-05-06T02:16:29.560Z,17.45
2023-05-06T02:18:56.615Z,17.44
2023-05-06T02:21:23.730Z,17.44
2023-05-06T02:23:50.908Z,17.45
2023-05-06T02:26:17.909Z,17.44
2023-05-06T02:28:44.879Z,17.43
2023-05-06T02:31:16.083Z,17.43
2023-05-06T02:33:43.733Z,17.41
2023-05-06T02:36:11.438Z,17.41
2023-05-06T02:38:38.658Z,17.40
2023-05-06T02:41:05.646Z,17.40
2023-05-06T02:43:32.681Z,17.38
2023-05-06T02:45:59.683Z,17.38
2023-05-06T02:48:26.783Z,17.38
2023-05-06T02:50:53.745Z,17.38
2023-05-06T02:53:20.900Z,17.39
2023-05-06T02:55:47.856Z,17.43
2023-05-06T02:58:14.842Z,17.46
2023-05-06T03:00:41.888Z,17.46
2023-05-06T03:03:09.274Z,17.44
2023-05-06T03:05:36.284Z,17.42
2023-05-06T03:08:03.297Z,17.40
2023-05-06T03:10:30.890Z,17.40
2023-05-06T03:12:58.270Z,17.36
2023-05-06T03:15:25.485Z,17.28
2023-05-06T03:17:53.871Z,17.22
2023-05-06T03:20:21.581Z,17.18
2023-05-06T03:22:51.813Z,17.15
2023-05-06T03:25:19.088Z,17.13
2023-05-06T03:27:46.394Z,17.12
2023-05-06T03:30:17.700Z,17.13
2023-05-06T03:32:45.026Z,17.15
2023-05-06T03:35:14.324Z,17.20
2023-05-06T03:37:42.593Z,17.27
2023-05-06T03:40:09.901Z,17.36
2023-05-06T03:42:36.988Z,17.48
2023-05-06T03:45:06.635Z,17.57
2023-05-06T03:47:34.155Z,17.59
2023-05-06T03:50:01.736Z,17.56
2023-05-06T03:52:29.884Z,17.51
2023-05-06T03:54:57.037Z,17.47
2023-05-06T03:57:24.432Z,17.43
2023-05-06T03:59:51.603Z,17.37
2023-05-06T04:02:18.812Z,17.32
2023-05-06T04:04:45.863Z,17.26
2023-05-06T04:07:12.864Z,17.21
2023-05-06T04:09:39.905Z,17.18
2023-05-06T04:12:07.860Z,17.14
2023-05-06T04:14:35.190Z,17.13
2023-05-06T04:17:02.713Z,17.13
2023-05-06T04:19:30.294Z,17.15
2023-05-06T04:21:58.576Z,17.16
2023-05-06T04:24:28.105Z,17.20
2023-05-06T04:26:55.922Z,17.24
2023-05-06T04:29:23.564Z,17.25
2023-05-06T04:31:57.869Z,17.27
2023-05-06T04:34:27.944Z,17.29
2023-05-06T04:36:55.518Z,17.31
2023-05-06T04:39:48.723Z,17.32
2023-05-06T04:42:18.917Z,17.32
2023-05-06T04:44:52.948Z,17.31
2023-05-06T04:47:22.320Z,17.34
2023-05-06T04:49:50.534Z,17.35
2023-05-06T04:52:18.337Z,17.35
2023-05-06T04:54:45.775Z,17.39
2023-05-06T04:57:13.101Z,17.44
2023-05-06T04:59:41.856Z,17.48
2023-05-06T05:02:08.881Z,17.54
2023-05-06T05:04:36.716Z,17.57
2023-05-06T05:07:03.680Z,17.60
2023-05-06T05:09:31.289Z,17.68
2023-05-06T05:11:58.554Z,17.73
2023-05-06T05:14:26.180Z,17.77
2023-05-06T05:16:53.343Z,17.80
2023-05-06T05:19:21.445Z,17.84
2023-05-06T05:21:49.280Z,17.86
2023-05-06T05:24:16.428Z,17.88
2023-05-06T05:26:43.630Z,17.88
2023-05-06T05:29:11.354Z,18.02
2023-05-06T05:31:38.612Z,18.32
2023-05-06T05:34:06.838Z,18.67
2023-05-06T05:36:33.797Z,19.00
2023-05-06T05:39:02.880Z,19.33
2023-05-06T05:41:30.786Z,19.65
2023-05-06T05:43:57.756Z,19.93
2023-05-06T05:46:25.730Z,20.17
2023-05-06T05:48:52.758Z,20.39
2023-05-06T05:51:20.879Z,20.55
2023-05-06T05:53:49.156Z,20.69
2023-05-06T05:56:16.896Z,20.82
2023-05-06T05:58:45.107Z,20.95
2023-05-06T06:01:12.112Z,21.08
2023-05-06T06:03:39.192Z,21.20
2023-05-06T06:06:06.816Z,21.28
2023-05-06T06:08:34.124Z,21.36
2023-05-06T06:11:04.111Z,21.44
2023-05-06T06:13:35.393Z,21.49
2023-05-06T06:16:02.395Z,21.50
2023-05-06T06:18:29.523Z,21.48
2023-05-06T06:20:57.237Z,21.43
2023-05-06T06:23:24.676Z,21.38
2023-05-06T06:25:51.745Z,21.35
2023-05-06T06:28:18.777Z,21.37
2023-05-06T06:30:46.064Z,21.38
2023-05-06T06:33:13.052Z,21.45
2023-05-06T06:35:40.426Z,21.54
2023-05-06T06:38:07.483Z,21.62
2023-05-06T06:40:34.489Z,21.68
2023-05-06T06:43:01.926Z,21.70
2023-05-06T06:45:48.931Z,21.75
2023-05-06T06:48:16.748Z,21.80
2023-05-06T06:50:43.763Z,21.85
2023-05-06T06:53:11.225Z,21.87
2023-05-06T06:55:38.240Z,21.88
2023-05-06T06:58:05.499Z,21.99
2023-05-06T07:00:32.519Z,22.13
2023-05-06T07:02:59.539Z,22.27
2023-05-06T07:05:29.450Z,22.46
2023-05-06T07:07:56.632Z,22.59
2023-05-06T07:10:23.609Z,22.70
2023-05-06T07:12:50.591Z,22.77
2023-05-06T07:15:17.571Z,22.89
2023-05-06T07:17:45.127Z,23.02
2023-05-06T07:20:12.725Z,23.06
2023-05-06T07:22:41.438Z,23.03
2023-05-06T07:25:09.044Z,22.96
2023-05-06T07:27:36.313Z,22.87
2023-05-06T07:30:03.607Z,22.80
2023-05-06T07:32:30.999Z,22.68
2023-05-06T07:34:58.031Z,22.52
2023-05-06T07:37:25.055Z,22.38
2023-05-06T07:39:52.032Z,22.24
2023-05-06T07:42:19.056Z,22.12
2023-05-06T07:44:45.994Z,22.01
2023-05-06T07:47:27.224Z,21.94
2023-05-06T07:49:54.859Z,21.91
2023-05-06T07:52:22.889Z,21.83
2023-05-06T07:54:50.005Z,21.77
2023-05-06T07:57:17.191Z,21.72
2023-05-06T07:59:46.937Z,21.70
2023-05-06T08:02:14.249Z,21.65
2023-05-06T08:04:41.269Z,21.62
2023-05-06T08:07:08.251Z,21.61
2023-05-06T08:09:35.211Z,21.62
2023-05-06T08:12:02.680Z,21.63
2023-05-06T08:14:29.804Z,21.67
2023-05-06T08:16:56.767Z,21.69
2023-05-06T08:19:23.787Z,21.70
2023-05-06T08:21:51.665Z,21.69
2023-05-06T08:24:18.782Z,21.68
2023-05-06T08:26:45.930Z,21.67
2023-05-06T08:29:13.636Z,21.66
2023-05-06T08:31:40.677Z,21.64
2023-05-06T08:34:07.790Z,21.63
2023-05-06T08:36:34.746Z,21.63
2023-05-06T08:39:01.735Z,21.64
2023-05-06T08:41:28.869Z,21.64
2023-05-06T08:43:55.830Z,21.61
2023-05-06T08:46:23.153Z,21.60
2023-05-06T08:48:50.168Z,21.63
2023-05-06T08:51:17.213Z,21.64
2023-05-06T08:53:47.920Z,21.66
2023-05-06T08:56:15.142Z,21.71
2023-05-06T08:58:46.922Z,21.78
2023-05-06T09:01:14.178Z,21.84
2023-05-06T09:03:41.278Z,21.86
2023-05-06T09:06:08.392Z,21.91
2023-05-06T09:08:36.363Z,21.93
2023-05-06T09:11:03.443Z,21.94
2023-05-06T09:13:30.993Z,21.95
2023-05-06T09:15:57.952Z,21.90
2023-05-06T09:18:24.918Z,21.89
2023-05-06T09:20:51.909Z,21.88
2023-05-06T09:23:19.139Z,21.92
2023-05-06T09:25:47.187Z,21.94
2023-05-06T09:28:14.488Z,21.94
2023-05-06T09:30:42.342Z,21.95
2023-05-06T09:33:10.096Z,21.95
2023-05-06T09:35:38.452Z,21.99
2023-05-06T09:38:07.143Z,22.02
2023-05-06T09:40:37.725Z,22.01
2023-05-06T09:43:05.445Z,22.03
2023-05-06T09:45:33.294Z,22.06
2023-05-06T09:48:00.723Z,22.09
2023-05-06T09:50:27.798Z,22.08
2023-05-06T09:52:55.798Z,22.08
2023-05-06T09:55:23.335Z,22.09
2023-05-06T09:57:50.531Z,22.11
2023-05-06T10:00:17.859Z,22.14
2023-05-06T10:02:45.815Z,22.16
2023-05-06T10:05:13.756Z,22.18
2023-05-06T10:07:42.438Z,22.21
2023-05-06T10:10:11.240Z,22.22
2023-05-06T10:12:38.343Z,22.23
2023-05-06T10:15:06.194Z,22.26
2023-05-06T10:17:33.213Z,22.36
2023-05-06T10:20:00.955Z,22.43
2023-05-06T10:22:37.060Z,22.49
2023-05-06T10:25:06.484Z,22.55
2023-05-06T10:27:36.001Z,22.61
2023-05-06T10:30:03.190Z,22.67
2023-05-06T10:32:32.327Z,22.71
2023-05-06T10:35:06.401Z,22.68
2023-05-06T10:37:33.371Z,22.69
2023-05-06T10:40:00.362Z,22.75
2023-05-06T10:42:28.580Z,22.78
2023-05-06T10:44:59.665Z,22.79
2023-05-06T10:47:27.082Z,22.80
2023-05-06T10:50:22.069Z,22.84
2023-05-06T10:52:51.916Z,22.84
2023-05-06T10:55:29.322Z,22.87
2023-05-06T10:58:04.000Z,22.94
2023-05-06T11:00:31.974Z,22.96
2023-05-06T11:03:01.998Z,23.01
2023-05-06T11:05:29.194Z,23.02
2023-05-06T11:08:21.561Z,23.06
2023-05-06T11:10:48.496Z,23.11
2023-05-06T11:13:19.871Z,23.16
2023-05-06T11:15:47.502Z,23.22
2023-05-06T11:18:27.775Z,23.26
2023-05-06T11:21:02.734Z,23.25
2023-05-06T11:23:42.553Z,23.28
2023-05-06T11:26:10.231Z,23.33
2023-05-06T11:28:37.425Z,23.31
2023-05-06T11:31:04.680Z,23.27
2023-05-06T11:33:36.548Z,23.25
2023-05-06T11:36:04.212Z,23.23
2023-05-06T11:38:48.109Z,23.24
2023-05-06T11:41:15.670Z,23.26
2023-05-06T11:43:46.784Z,23.26
2023-05-06T11:46:13.701Z,23.25
2023-05-06T11:48:40.690Z,23.26
2023-05-06T11:51:08.365Z,23.25
2023-05-06T11:53:35.410Z,23.23
2023-05-06T11:56:02.632Z,23.24
2023-05-06T11:58:29.644Z,23.29
2023-05-06T12:01:00.661Z,23.28
2023-05-06T12:03:28.853Z,23.25
2023-05-06T12:05:56.296Z,23.23
2023-05-06T12:08:27.807Z,23.25
2023-05-06T12:10:56.558Z,23.25
2023-05-06T12:13:23.585Z,23.22
2023-05-06T12:15:50.681Z,23.25
2023-05-06T12:18:17.680Z,23.25
2023-05-06T12:20:44.713Z,23.27
2023-05-06T12:23:12.640Z,23.30
2023-05-06T12:25:40.067Z,23.34
2023-05-06T12:28:26.972Z,23.39
2023-05-06T12:30:54.010Z,23.44
2023-05-06T12:33:21.520Z,23.46
2023-05-06T12:35:49.110Z,23.44
2023-05-06T12:38:16.940Z,23.44
2023-05-06T12:40:45.344Z,23.44
2023-05-06T12:43:12.562Z,23.46
2023-05-06T12:45:40.203Z,23.47
2023-05-06T12:48:07.496Z,23.50
2023-05-06T12:50:39.658Z,23.51
2023-05-06T12:53:10.353Z,23.48
2023-05-06T12:55:38.391Z,23.45
2023-05-06T12:58:15.876Z,23.38
2023-05-06T13:00:42.959Z,23.31
2023-05-06T13:03:11.667Z,23.27
2023-05-06T13:05:38.805Z,23.26
2023-05-06T13:08:05.933Z,23.26
2023-05-06T13:10:32.972Z,23.28
2023-05-06T13:12:59.943Z,23.31
2023-05-06T13:15:27.198Z,23.38
2023-05-06T13:17:54.360Z,23.43
2023-05-06T13:20:21.773Z,23.47
2023-05-06T13:22:54.722Z,23.51
2023-05-06T13:25:22.393Z,23.53
2023-05-06T13:27:49.573Z,23.54
2023-05-06T13:30:17.190Z,23.58
2023-05-06T13:32:44.178Z,23.61
2023-05-06T13:35:11.570Z,23.65
2023-05-06T13:37:38.696Z,23.68
2023-05-06T13:40:06.605Z,23.72
2023-05-06T13:42:33.704Z,23.77
2023-05-06T13:45:00.748Z,23.81
2023-05-06T13:47:27.706Z,23.84
2023-05-06T13:49:54.640Z,23.84
2023-05-06T13:52:21.811Z,23.81
2023-05-06T13:54:49.702Z,23.75
2023-05-06T13:57:17.497Z,23.71
2023-05-06T13:59:44.450Z,23.66
2023-05-06T14:02:11.961Z,23.64
2023-05-06T14:04:39.041Z,23.64
2023-05-06T14:07:06.183Z,23.64
2023-05-06T14:09:33.328Z,23.65
2023-05-06T14:12:00.657Z,23.67
2023-05-06T14:14:27.682Z,23.65
2023-05-06T14:16:55.782Z,23.64
2023-05-06T14:19:23.542Z,23.65
2023-05-06T14:21:51.895Z,23.64
2023-05-06T14:24:18.856Z,23.61
2023-05-06T14:26:46.293Z,23.58
2023-05-06T14:29:13.304Z,23.51
2023-05-06T14:31:40.428Z,23.46
2023-05-06T14:34:07.551Z,23.44
2023-05-06T14:36:34.566Z,23.43
2023-05-06T14:39:01.590Z,23.33
2023-05-06T14:41:28.690Z,23.46
2023-05-06T14:43:55.796Z,23.50
2023-05-06T14:46:23.176Z,23.51
2023-05-06T14:48:50.791Z,23.51
2023-05-06T14:51:17.752Z,23.50
2023-05-06T14:53:45.470Z,23.47
2023-05-06T14:56:12.532Z,23.47
2023-05-06T14:58:39.521Z,23.46
2023-05-06T15:01:07.179Z,23.43
2023-05-06T15:03:34.244Z,23.42
2023-05-06T15:06:01.344Z,23.37
2023-05-06T15:08:28.338Z,23.32
2023-05-06T15:10:55.533Z,23.30
2023-05-06T15:13:22.630Z,23.25
2023-05-06T15:15:49.729Z,23.20
2023-05-06T15:18:16.690Z,23.16
2023-05-06T15:20:43.643Z,23.10
2023-05-06T15:23:10.815Z,23.06
2023-05-06T15:25:38.247Z,22.96
2023-05-06T15:28:05.742Z,22.88
2023-05-06T15:30:32.725Z,22.80
2023-05-06T15:33:01.475Z,22.76
2023-05-06T15:35:28.650Z,22.71
2023-05-06T15:37:58.807Z,22.66
2023-05-06T15:40:26.329Z,22.63
2023-05-06T15:42:53.280Z,22.64
2023-05-06T15:45:21.137Z,22.60
2023-05-06T15:47:48.467Z,22.59
2023-05-06T15:50:25.343Z,22.56
2023-05-06T15:52:59.320Z,22.54
2023-05-06T15:55:26.751Z,22.52
2023-05-06T15:57:54.943Z,22.45
2023-05-06T16:00:22.305Z,22.38
2023-05-06T16:02:49.438Z,22.28
2023-05-06T16:05:16.787Z,22.20
2023-05-06T16:07:43.782Z,22.14
2023-05-06T16:10:10.908Z,22.10
2023-05-06T16:12:38.104Z,22.08
2023-05-06T16:15:05.475Z,22.05
2023-05-06T16:17:37.626Z,22.00
2023-05-06T16:20:05.544Z,21.97
2023-05-06T16:22:32.522Z,21.93
2023-05-06T16:24:59.492Z,21.89
2023-05-06T16:27:28.400Z,21.85
2023-05-06T16:29:55.802Z,21.82
2023-05-06T16:32:23.439Z,21.78
2023-05-06T16:34:50.521Z,21.75
2023-05-06T16:37:17.478Z,21.70
2023-05-06T16:39:44.420Z,21.66
2023-05-06T16:42:11.392Z,21.62
2023-05-06T16:44:38.386Z,21.60
2023-05-06T16:47:05.968Z,21.56
2023-05-06T16:49:33.936Z,21.53
2023-05-06T16:52:00.919Z,21.49
2023-05-06T16:54:27.907Z,21.46
2023-05-06T16:56:54.943Z,21.43
2023-05-06T16:59:22.557Z,21.40
2023-05-06T17:01:50.530Z,21.35
2023-05-06T17:04:17.553Z,21.28
2023-05-06T17:06:44.565Z,21.21
2023-05-06T17:09:11.592Z,21.13
2023-05-06T17:11:38.568Z,21.04
2023-05-06T17:14:05.578Z,20.97
2023-05-06T17:16:32.578Z,20.92
2023-05-06T17:18:59.565Z,20.90
2023-05-06T17:21:27.961Z,20.88
2023-05-06T17:23:55.015Z,20.86
2023-05-06T17:26:22.269Z,20.84
2023-05-06T17:28:50.993Z,20.81
2023-05-06T17:31:18.600Z,20.80
2023-05-06T17:33:45.782Z,20.78
2023-05-06T17:36:13.356Z,20.75
2023-05-06T17:38:40.314Z,20.72
2023-05-06T17:41:07.294Z,20.70
2023-05-06T17:43:34.328Z,20.67
2023-05-06T17:46:01.547Z,20.63
2023-05-06T17:48:28.663Z,20.61
2023-05-06T17:51:00.924Z,20.59
2023-05-06T17:53:28.403Z,20.56
2023-05-06T17:55:55.452Z,20.52
2023-05-06T17:58:22.386Z,20.47
2023-05-06T18:00:49.317Z,20.44
2023-05-06T18:03:16.556Z,20.40
2023-05-06T18:05:43.619Z,20.38
2023-05-06T18:08:10.671Z,20.35
2023-05-06T18:10:37.623Z,20.29
2023-05-06T18:13:04.664Z,20.24
2023-05-06T18:15:31.674Z,20.18
2023-05-06T18:17:58.656Z,20.13
2023-05-06T18:20:25.755Z,20.06
2023-05-06T18:22:52.715Z,20.01
2023-05-06T18:25:19.779Z,19.96
2023-05-06T18:27:47.529Z,19.90
2023-05-06T18:30:15.170Z,19.85
2023-05-06T18:32:42.189Z,19.81
2023-05-06T18:35:11.195Z,19.76
2023-05-06T18:37:38.672Z,19.74
2023-05-06T18:40:07.817Z,19.70
2023-05-06T18:42:35.649Z,19.69
2023-05-06T18:45:04.718Z,19.66
2023-05-06T18:47:32.354Z,19.62
2023-05-06T18:50:00.833Z,19.58
2023-05-06T18:52:27.819Z,19.55
2023-05-06T18:54:54.786Z,19.52
2023-05-06T18:57:21.917Z,19.47
2023-05-06T18:59:48.898Z,19.44
2023-05-06T19:02:15.883Z,19.42
2023-05-06T19:04:43.620Z,19.40
2023-05-06T19:07:11.288Z,19.38
2023-05-06T19:09:38.623Z,19.37
2023-05-06T19:12:05.726Z,19.36
2023-05-06T19:14:34.714Z,19.34
2023-05-06T19:17:03.506Z,19.32
2023-05-06T19:19:31.326Z,19.30
2023-05-06T19:21:59.186Z,19.28
2023-05-06T19:24:26.394Z,19.26
2023-05-06T19:26:53.364Z,19.24
2023-05-06T19:29:20.321Z,19.22
2023-05-06T19:31:47.307Z,19.21
2023-05-06T19:34:14.241Z,19.18
2023-05-06T19:36:41.310Z,19.14
2023-05-06T19:39:08.347Z,19.10
2023-05-06T19:41:35.289Z,19.08
2023-05-06T19:44:02.250Z,19.06
2023-05-06T19:46:29.222Z,19.03
2023-05-06T19:48:58.168Z,19.01
2023-05-06T19:51:25.112Z,19.00
2023-05-06T19:53:52.060Z,18.99
2023-05-06T19:56:19.814Z,18.96
2023-05-06T19:58:46.822Z,18.95
2023-05-06T20:01:13.869Z,18.90
2023-05-06T20:03:41.056Z,18.88
2023-05-06T20:06:08.141Z,18.86
2023-05-06T20:08:35.543Z,18.81
2023-05-06T20:11:02.611Z,18.79
2023-05-06T20:13:29.627Z,18.75
2023-05-06T20:15:57.504Z,18.71
2023-05-06T20:18:25.304Z,18.66
2023-05-06T20:20:52.280Z,18.63
2023-05-06T20:23:19.230Z,18.60
2023-05-06T20:25:46.298Z,18.53
2023-05-06T20:28:13.450Z,18.46
2023-05-06T20:30:40.528Z,18.38
2023-05-06T20:33:08.022Z,18.33
2023-05-06T20:35:38.542Z,18.28
2023-05-06T20:38:06.240Z,18.20
2023-05-06T20:40:34.202Z,18.13
2023-05-06T20:43:01.258Z,18.05
2023-05-06T20:45:28.433Z,17.93
2023-05-06T20:47:55.532Z,17.89
2023-05-06T20:50:22.487Z,17.83
2023-05-06T20:52:49.537Z,17.82
2023-05-06T20:55:16.625Z,17.77
2023-05-06T20:57:44.097Z,17.72
2023-05-06T21:00:11.625Z,17.69
2023-05-06T21:02:41.396Z,17.67
2023-05-06T21:05:09.306Z,17.63
2023-05-06T21:07:36.477Z,17.60
2023-05-06T21:10:05.982Z,17.58
2023-05-06T21:12:33.618Z,17.55
2023-05-06T21:15:00.870Z,17.50
2023-05-06T21:17:28.491Z,17.48
2023-05-06T21:19:55.562Z,17.42
2023-05-06T21:22:25.863Z,17.39
2023-05-06T21:24:52.898Z,17.35
2023-05-06T21:27:19.858Z,17.34
2023-05-06T21:29:46.797Z,17.33
2023-05-06T21:32:13.857Z,17.28
2023-05-06T21:34:40.869Z,17.25
2023-05-06T21:37:07.887Z,17.24
2023-05-06T21:39:34.873Z,17.22
2023-05-06T21:42:02.143Z,17.19
2023-05-06T21:44:29.117Z,17.16
2023-05-06T21:46:56.320Z,17.12
2023-05-06T21:49:23.493Z,17.11
2023-05-06T21:51:50.429Z,17.08
2023-05-06T21:54:17.514Z,17.06
2023-05-06T21:56:44.813Z,17.04
2023-05-06T21:59:11.835Z,17.01
2023-05-06T22:01:39.020Z,16.99
2023-05-06T22:04:11.497Z,16.98
2023-05-06T22:06:39.489Z,16.97
2023-05-06T22:09:09.799Z,16.94
2023-05-06T22:11:38.540Z,16.92
2023-05-06T22:14:06.908Z,16.87
2023-05-06T22:16:35.570Z,16.85
2023-05-06T22:19:04.136Z,16.83
2023-05-06T22:21:33.038Z,16.80
2023-05-06T22:24:00.083Z,16.75
2023-05-06T22:26:29.949Z,16.76
2023-05-06T22:28:56.929Z,16.74
2023-05-06T22:31:24.904Z,16.72
2023-05-06T22:33:55.575Z,16.67
2023-05-06T22:36:22.753Z,16.66
2023-05-06T22:38:50.006Z,16.64
2023-05-06T22:41:17.583Z,16.63
2023-05-06T22:43:44.533Z,16.61
2023-05-06T22:46:11.508Z,16.58
2023-05-06T22:48:38.518Z,16.56
2023-05-06T22:51:05.609Z,16.55
2023-05-06T22:53:32.590Z,16.53
2023-05-06T22:55:59.707Z,16.50
2023-05-06T22:58:26.684Z,16.47
2023-05-06T23:00:53.783Z,16.44
2023-05-06T23:03:22.609Z,16.39
2023-05-06T23:05:49.774Z,16.36
2023-05-06T23:08:16.739Z,16.33
2023-05-06T23:10:44.217Z,16.30
2023-05-06T23:13:12.207Z,16.27
2023-05-06T23:15:40.094Z,16.25
2023-05-06T23:18:07.296Z,16.22
2023-05-06T23:20:34.357Z,16.17
2023-05-06T23:23:01.362Z,16.10
2023-05-06T23:25:28.329Z,16.04
2023-05-06T23:27:55.418Z,16.02
2023-05-06T23:30:22.534Z,16.04
2023-05-06T23:32:49.617Z,16.02
2023-05-06T23:35:16.722Z,16.01
2023-05-06T23:37:43.658Z,16.01
2023-05-06T23:40:12.723Z,15.98
2023-05-06T23:42:40.173Z,15.94
2023-05-06T23:45:07.706Z,15.91
2023-05-06T23:47:34.696Z,15.86
2023-05-06T23:50:01.680Z,15.86
2023-05-06T23:52:28.629Z,15.87
2023-05-06T23:54:55.725Z,15.84
2023-05-06T23:57:22.762Z,15.83
2023-05-06T23:59:49.744Z,15.81
